sensor_id;sensor_type;location;lat;lon;timestamp;P1;durP1;ratioP1;P2;durP2;ratioP2
25752;SDS011;13600;50.816;4.416;2023-03-01T00:01:27;19.67;;;12.32;;
25752;SDS011;13600;50.816;4.416;2023-03-01T00:03:53;21.65;;;11.32;;
25752;SDS011;13600;50.816;4.416;2023-03-01T00:06:20;18.88;;;12.15;;
25752;SDS011;13600;50.816;4.416;2023-03-01T00:08:46;21.90;;;12.18;;
25752;SDS011;13600;50.816;4.416;2023-03-01T00:11:14;18.63;;;12.27;;
25752;SDS011;13600;50.816;4.416;2023-03-01T00:13:42;19.88;;;11.57;;
25752;SDS011;13600;50.816;4.416;2023-03-01T00:16:10;16.77;;;11.73;;
25752;SDS011;13600;50.816;4.416;2023-03-01T00:18:42;19.45;;;11.88;;
25752;SDS011;13600;50.816;4.416;2023-03-01T00:21:08;18.65;;;11.93;;
25752;SDS011;13600;50.816;4.416;2023-03-01T00:23:34;20.95;;;12.65;;
25752;SDS011;13600;50.816;4.416;2023-03-01T00:26:00;18.25;;;11.43;;
25752;SDS011;13600;50.816;4.416;2023-03-01T00:28:26;21.40;;;12.32;;
25752;SDS011;13600;50.816;4.416;2023-03-01T00:30:53;19.80;;;12.00;;
25752;SDS011;13600;50.816;4.416;2023-03-01T00:33:18;23.10;;;12.63;;
25752;SDS011;13600;50.816;4.416;2023-03-01T00:35:44;20.15;;;11.93;;
25752;SDS011;13600;50.816;4.416;2023-03-01T00:38:10;18.27;;;11.30;;
25752;SDS011;13600;50.816;4.416;2023-03-01T00:40:36;20.67;;;12.38;;
25752;SDS011;13600;50.816;4.416;2023-03-01T00:43:02;19.20;;;11.52;;
25752;SDS011;13600;50.816;4.416;2023-03-01T00:45:28;18.75;;;11.52;;
25752;SDS011;13600;50.816;4.416;2023-03-01T00:47:56;20.13;;;13.02;;
25752;SDS011;13600;50.816;4.416;2023-03-01T00:50:21;17.95;;;11.73;;
25752;SDS011;13600;50.816;4.416;2023-03-01T00:52:51;23.15;;;12.57;;
25752;SDS011;13600;50.816;4.416;2023-03-01T00:55:18;20.35;;;12.18;;
25752;SDS011;13600;50.816;4.416;2023-03-01T00:57:43;20.17;;;11.98;;
25752;SDS011;13600;50.816;4.416;2023-03-01T01:00:09;21.90;;;11.77;;
25752;SDS011;13600;50.816;4.416;2023-03-01T01:02:36;17.58;;;11.38;;
25752;SDS011;13600;50.816;4.416;2023-03-01T01:05:02;19.20;;;11.45;;
25752;SDS011;13600;50.816;4.416;2023-03-01T01:07:28;17.08;;;11.48;;
25752;SDS011;13600;50.816;4.416;2023-03-01T01:09:54;19.05;;;11.77;;
25752;SDS011;13600;50.816;4.416;2023-03-01T01:12:20;20.80;;;12.38;;
25752;SDS011;13600;50.816;4.416;2023-03-01T01:14:46;18.45;;;11.35;;
25752;SDS011;13600;50.816;4.416;2023-03-01T01:17:11;17.75;;;11.90;;
25752;SDS011;13600;50.816;4.416;2023-03-01T01:19:37;20.85;;;11.07;;
25752;SDS011;13600;50.816;4.416;2023-03-01T01:22:03;19.10;;;12.07;;
25752;SDS011;13600;50.816;4.416;2023-03-01T01:24:29;16.45;;;10.70;;
25752;SDS011;13600;50.816;4.416;2023-03-01T01:26:54;16.55;;;10.98;;
25752;SDS011;13600;50.816;4.416;2023-03-01T01:29:21;18.80;;;11.73;;
25752;SDS011;13600;50.816;4.416;2023-03-01T01:31:46;17.35;;;11.27;;
25752;SDS011;13600;50.816;4.416;2023-03-01T01:34:14;19.35;;;11.43;;
25752;SDS011;13600;50.816;4.416;2023-03-01T01:36:41;17.58;;;11.38;;
25752;SDS011;13600;50.816;4.416;2023-03-01T01:39:07;20.70;;;11.32;;
25752;SDS011;13600;50.816;4.416;2023-03-01T01:41:33;18.38;;;11.95;;
25752;SDS011;13600;50.816;4.416;2023-03-01T01:46:46;18.55;;;11.20;;
25752;SDS011;13600;50.816;4.416;2023-03-01T01:51:45;17.42;;;11.15;;
25752;SDS011;13600;50.816;4.416;2023-03-01T01:54:20;20.98;;;10.95;;
25752;SDS011;13600;50.816;4.416;2023-03-01T01:57:00;17.65;;;11.27;;
25752;SDS011;13600;50.816;4.416;2023-03-01T01:59:31;17.98;;;11.15;;
25752;SDS011;13600;50.816;4.416;2023-03-01T02:01:59;17.80;;;11.10;;
25752;SDS011;13600;50.816;4.416;2023-03-01T02:04:26;18.08;;;10.95;;
25752;SDS011;13600;50.816;4.416;2023-03-01T02:09:30;18.73;;;11.20;;
25752;SDS011;13600;50.816;4.416;2023-03-01T02:11:57;16.17;;;10.70;;
25752;SDS011;13600;50.816;4.416;2023-03-01T02:14:23;17.17;;;11.15;;
25752;SDS011;13600;50.816;4.416;2023-03-01T02:16:49;18.88;;;11.35;;
25752;SDS011;13600;50.816;4.416;2023-03-01T02:22:22;17.75;;;11.63;;
25752;SDS011;13600;50.816;4.416;2023-03-01T02:27:53;17.95;;;11.25;;
25752;SDS011;13600;50.816;4.416;2023-03-01T02:30:30;18.23;;;11.13;;
25752;SDS011;13600;50.816;4.416;2023-03-01T02:32:57;19.58;;;11.32;;
25752;SDS011;13600;50.816;4.416;2023-03-01T02:35:32;23.42;;;12.45;;
25752;SDS011;13600;50.816;4.416;2023-03-01T02:38:03;17.80;;;11.25;;
25752;SDS011;13600;50.816;4.416;2023-03-01T02:40:33;20.17;;;11.32;;
25752;SDS011;13600;50.816;4.416;2023-03-01T02:43:01;16.83;;;10.73;;
25752;SDS011;13600;50.816;4.416;2023-03-01T02:45:31;19.77;;;11.02;;
25752;SDS011;13600;50.816;4.416;2023-03-01T02:47:57;16.85;;;11.40;;
25752;SDS011;13600;50.816;4.416;2023-03-01T02:52:59;19.20;;;11.57;;
25752;SDS011;13600;50.816;4.416;2023-03-01T02:55:41;24.38;;;12.50;;
25752;SDS011;13600;50.816;4.416;2023-03-01T02:58:07;17.65;;;12.25;;
25752;SDS011;13600;50.816;4.416;2023-03-01T03:00:37;21.27;;;12.07;;
25752;SDS011;13600;50.816;4.416;2023-03-01T03:03:10;18.58;;;11.70;;
25752;SDS011;13600;50.816;4.416;2023-03-01T03:05:39;22.95;;;13.15;;
25752;SDS011;13600;50.816;4.416;2023-03-01T03:08:05;21.10;;;13.05;;
25752;SDS011;13600;50.816;4.416;2023-03-01T03:10:33;21.42;;;13.25;;
25752;SDS011;13600;50.816;4.416;2023-03-01T03:13:08;21.88;;;12.43;;
25752;SDS011;13600;50.816;4.416;2023-03-01T03:15:36;23.83;;;13.32;;
25752;SDS011;13600;50.816;4.416;2023-03-01T03:18:04;20.65;;;13.40;;
25752;SDS011;13600;50.816;4.416;2023-03-01T03:20:32;22.90;;;13.82;;
25752;SDS011;13600;50.816;4.416;2023-03-01T03:22:58;19.92;;;13.43;;
25752;SDS011;13600;50.816;4.416;2023-03-01T03:25:24;24.15;;;14.10;;
25752;SDS011;13600;50.816;4.416;2023-03-01T03:27:51;21.40;;;12.40;;
25752;SDS011;13600;50.816;4.416;2023-03-01T03:30:21;26.60;;;13.57;;
25752;SDS011;13600;50.816;4.416;2023-03-01T03:32:48;20.85;;;13.07;;
25752;SDS011;13600;50.816;4.416;2023-03-01T03:35:27;21.20;;;12.63;;
25752;SDS011;13600;50.816;4.416;2023-03-01T03:38:13;19.08;;;11.68;;
25752;SDS011;13600;50.816;4.416;2023-03-01T03:40:45;19.75;;;11.82;;
25752;SDS011;13600;50.816;4.416;2023-03-01T03:43:13;18.67;;;11.93;;
25752;SDS011;13600;50.816;4.416;2023-03-01T03:45:48;18.95;;;11.45;;
25752;SDS011;13600;50.816;4.416;2023-03-01T03:48:15;19.95;;;12.32;;
25752;SDS011;13600;50.816;4.416;2023-03-01T03:50:41;21.38;;;12.23;;
25752;SDS011;13600;50.816;4.416;2023-03-01T03:53:11;18.90;;;11.73;;
25752;SDS011;13600;50.816;4.416;2023-03-01T03:55:37;20.13;;;12.13;;
25752;SDS011;13600;50.816;4.416;2023-03-01T03:58:08;20.10;;;11.95;;
25752;SDS011;13600;50.816;4.416;2023-03-01T04:00:36;19.40;;;11.77;;
25752;SDS011;13600;50.816;4.416;2023-03-01T04:03:03;18.70;;;12.18;;
25752;SDS011;13600;50.816;4.416;2023-03-01T04:05:30;20.42;;;12.30;;
25752;SDS011;13600;50.816;4.416;2023-03-01T04:07:56;19.17;;;12.07;;
25752;SDS011;13600;50.816;4.416;2023-03-01T04:10:29;19.38;;;12.02;;
25752;SDS011;13600;50.816;4.416;2023-03-01T04:12:57;17.38;;;12.25;;
25752;SDS011;13600;50.816;4.416;2023-03-01T04:15:22;22.25;;;12.48;;
25752;SDS011;13600;50.816;4.416;2023-03-01T04:17:50;18.60;;;12.25;;
25752;SDS011;13600;50.816;4.416;2023-03-01T04:20:21;22.77;;;12.55;;
25752;SDS011;13600;50.816;4.416;2023-03-01T04:25:25;17.10;;;10.23;;
25752;SDS011;13600;50.816;4.416;2023-03-01T04:27:52;19.48;;;12.48;;
25752;SDS011;13600;50.816;4.416;2023-03-01T04:30:17;19.35;;;13.00;;
25752;SDS011;13600;50.816;4.416;2023-03-01T04:32:44;20.45;;;12.20;;
25752;SDS011;13600;50.816;4.416;2023-03-01T04:35:09;21.48;;;13.27;;
25752;SDS011;13600;50.816;4.416;2023-03-01T04:37:35;22.92;;;12.63;;
25752;SDS011;13600;50.816;4.416;2023-03-01T04:40:02;19.13;;;13.38;;
25752;SDS011;13600;50.816;4.416;2023-03-01T04:42:41;17.15;;;11.70;;
25752;SDS011;13600;50.816;4.416;2023-03-01T04:45:07;21.30;;;13.13;;
25752;SDS011;13600;50.816;4.416;2023-03-01T04:47:41;17.92;;;12.25;;
25752;SDS011;13600;50.816;4.416;2023-03-01T04:50:09;21.08;;;12.73;;
25752;SDS011;13600;50.816;4.416;2023-03-01T04:52:36;23.67;;;12.35;;
25752;SDS011;13600;50.816;4.416;2023-03-01T04:55:02;20.98;;;12.70;;
25752;SDS011;13600;50.816;4.416;2023-03-01T04:57:29;19.30;;;12.70;;
25752;SDS011;13600;50.816;4.416;2023-03-01T04:59:55;21.42;;;12.63;;
25752;SDS011;13600;50.816;4.416;2023-03-01T05:02:21;22.15;;;13.13;;
25752;SDS011;13600;50.816;4.416;2023-03-01T05:04:46;20.63;;;12.82;;
25752;SDS011;13600;50.816;4.416;2023-03-01T05:07:12;20.23;;;12.52;;
25752;SDS011;13600;50.816;4.416;2023-03-01T05:09:44;22.63;;;12.80;;
25752;SDS011;13600;50.816;4.416;2023-03-01T05:12:10;20.83;;;12.73;;
25752;SDS011;13600;50.816;4.416;2023-03-01T05:14:36;22.45;;;12.23;;
25752;SDS011;13600;50.816;4.416;2023-03-01T05:17:03;23.30;;;12.90;;
25752;SDS011;13600;50.816;4.416;2023-03-01T05:19:30;19.38;;;12.02;;
25752;SDS011;13600;50.816;4.416;2023-03-01T05:21:56;20.73;;;13.07;;
25752;SDS011;13600;50.816;4.416;2023-03-01T05:24:32;20.27;;;12.38;;
25752;SDS011;13600;50.816;4.416;2023-03-01T05:26:59;19.13;;;11.98;;
25752;SDS011;13600;50.816;4.416;2023-03-01T05:29:26;19.13;;;12.25;;
25752;SDS011;13600;50.816;4.416;2023-03-01T05:31:57;21.15;;;12.65;;
25752;SDS011;13600;50.816;4.416;2023-03-01T05:34:25;24.13;;;12.85;;
25752;SDS011;13600;50.816;4.416;2023-03-01T05:36:51;20.33;;;12.38;;
25752;SDS011;13600;50.816;4.416;2023-03-01T05:39:21;19.83;;;12.30;;
25752;SDS011;13600;50.816;4.416;2023-03-01T05:41:54;20.20;;;12.07;;
25752;SDS011;13600;50.816;4.416;2023-03-01T05:44:24;20.63;;;12.13;;
25752;SDS011;13600;50.816;4.416;2023-03-01T05:46:51;21.85;;;12.35;;
25752;SDS011;13600;50.816;4.416;2023-03-01T05:49:17;19.40;;;12.00;;
25752;SDS011;13600;50.816;4.416;2023-03-01T05:51:46;21.15;;;12.50;;
25752;SDS011;13600;50.816;4.416;2023-03-01T05:54:14;23.00;;;12.02;;
25752;SDS011;13600;50.816;4.416;2023-03-01T05:56:40;18.48;;;12.30;;
25752;SDS011;13600;50.816;4.416;2023-03-01T05:59:08;20.20;;;11.82;;
25752;SDS011;13600;50.816;4.416;2023-03-01T06:01:34;21.25;;;12.32;;
25752;SDS011;13600;50.816;4.416;2023-03-01T06:04:01;24.48;;;12.30;;
25752;SDS011;13600;50.816;4.416;2023-03-01T06:06:27;23.75;;;12.70;;
25752;SDS011;13600;50.816;4.416;2023-03-01T06:08:53;21.75;;;13.27;;
25752;SDS011;13600;50.816;4.416;2023-03-01T06:11:19;21.50;;;13.15;;
25752;SDS011;13600;50.816;4.416;2023-03-01T06:13:46;21.05;;;12.27;;
25752;SDS011;13600;50.816;4.416;2023-03-01T06:16:12;21.73;;;12.38;;
25752;SDS011;13600;50.816;4.416;2023-03-01T06:18:39;21.23;;;12.10;;
25752;SDS011;13600;50.816;4.416;2023-03-01T06:21:05;27.10;;;13.27;;
25752;SDS011;13600;50.816;4.416;2023-03-01T06:23:32;20.10;;;13.07;;
25752;SDS011;13600;50.816;4.416;2023-03-01T06:25:58;21.23;;;13.45;;
25752;SDS011;13600;50.816;4.416;2023-03-01T06:28:25;19.98;;;13.18;;
25752;SDS011;13600;50.816;4.416;2023-03-01T06:30:50;21.65;;;12.80;;
25752;SDS011;13600;50.816;4.416;2023-03-01T06:33:17;26.38;;;13.45;;
25752;SDS011;13600;50.816;4.416;2023-03-01T06:35:45;22.05;;;13.48;;
25752;SDS011;13600;50.816;4.416;2023-03-01T06:38:11;22.98;;;13.25;;
25752;SDS011;13600;50.816;4.416;2023-03-01T06:40:39;22.25;;;13.57;;
25752;SDS011;13600;50.816;4.416;2023-03-01T06:43:06;22.73;;;13.45;;
25752;SDS011;13600;50.816;4.416;2023-03-01T06:45:32;20.83;;;13.43;;
25752;SDS011;13600;50.816;4.416;2023-03-01T06:48:02;25.27;;;13.57;;
25752;SDS011;13600;50.816;4.416;2023-03-01T06:50:33;22.42;;;13.18;;
25752;SDS011;13600;50.816;4.416;2023-03-01T06:52:59;23.55;;;12.93;;
25752;SDS011;13600;50.816;4.416;2023-03-01T06:55:25;21.23;;;12.75;;
25752;SDS011;13600;50.816;4.416;2023-03-01T06:57:57;21.10;;;13.65;;
25752;SDS011;13600;50.816;4.416;2023-03-01T07:00:24;20.42;;;12.80;;
25752;SDS011;13600;50.816;4.416;2023-03-01T07:02:51;22.52;;;12.73;;
25752;SDS011;13600;50.816;4.416;2023-03-01T07:05:17;23.73;;;13.20;;
25752;SDS011;13600;50.816;4.416;2023-03-01T07:07:42;22.17;;;12.93;;
25752;SDS011;13600;50.816;4.416;2023-03-01T07:10:08;20.15;;;13.32;;
25752;SDS011;13600;50.816;4.416;2023-03-01T07:12:34;22.00;;;13.23;;
25752;SDS011;13600;50.816;4.416;2023-03-01T07:15:00;23.00;;;13.15;;
25752;SDS011;13600;50.816;4.416;2023-03-01T07:17:26;25.00;;;13.25;;
25752;SDS011;13600;50.816;4.416;2023-03-01T07:19:51;20.45;;;13.13;;
25752;SDS011;13600;50.816;4.416;2023-03-01T07:22:17;23.30;;;13.23;;
25752;SDS011;13600;50.816;4.416;2023-03-01T07:24:42;21.63;;;12.68;;
25752;SDS011;13600;50.816;4.416;2023-03-01T07:27:08;22.20;;;13.48;;
25752;SDS011;13600;50.816;4.416;2023-03-01T07:29:34;24.85;;;12.98;;
25752;SDS011;13600;50.816;4.416;2023-03-01T07:32:01;23.50;;;12.75;;
25752;SDS011;13600;50.816;4.416;2023-03-01T07:34:28;22.75;;;13.25;;
25752;SDS011;13600;50.816;4.416;2023-03-01T07:36:53;21.92;;;12.73;;
25752;SDS011;13600;50.816;4.416;2023-03-01T07:39:19;22.30;;;13.00;;
25752;SDS011;13600;50.816;4.416;2023-03-01T07:41:45;27.80;;;13.93;;
25752;SDS011;13600;50.816;4.416;2023-03-01T07:44:12;23.13;;;12.35;;
25752;SDS011;13600;50.816;4.416;2023-03-01T07:46:37;19.50;;;12.48;;
25752;SDS011;13600;50.816;4.416;2023-03-01T07:49:03;22.58;;;13.48;;
25752;SDS011;13600;50.816;4.416;2023-03-01T07:51:29;24.95;;;13.63;;
25752;SDS011;13600;50.816;4.416;2023-03-01T07:53:55;23.50;;;13.77;;
25752;SDS011;13600;50.816;4.416;2023-03-01T07:56:21;23.13;;;13.57;;
25752;SDS011;13600;50.816;4.416;2023-03-01T07:58:47;20.60;;;12.50;;
25752;SDS011;13600;50.816;4.416;2023-03-01T08:01:17;24.02;;;13.65;;
25752;SDS011;13600;50.816;4.416;2023-03-01T08:03:44;22.55;;;13.23;;
25752;SDS011;13600;50.816;4.416;2023-03-01T08:06:11;22.55;;;13.50;;
25752;SDS011;13600;50.816;4.416;2023-03-01T08:08:38;21.42;;;12.80;;
25752;SDS011;13600;50.816;4.416;2023-03-01T08:11:04;27.00;;;12.82;;
25752;SDS011;13600;50.816;4.416;2023-03-01T08:13:32;24.40;;;14.25;;
25752;SDS011;13600;50.816;4.416;2023-03-01T08:16:02;22.80;;;14.45;;
25752;SDS011;13600;50.816;4.416;2023-03-01T08:18:30;30.48;;;13.43;;
25752;SDS011;13600;50.816;4.416;2023-03-01T08:20:55;24.95;;;14.18;;
25752;SDS011;13600;50.816;4.416;2023-03-01T08:23:25;19.77;;;12.63;;
25752;SDS011;13600;50.816;4.416;2023-03-01T08:25:51;22.83;;;13.55;;
25752;SDS011;13600;50.816;4.416;2023-03-01T08:28:18;20.77;;;13.32;;
25752;SDS011;13600;50.816;4.416;2023-03-01T08:30:43;20.23;;;12.77;;
25752;SDS011;13600;50.816;4.416;2023-03-01T08:33:09;25.70;;;14.10;;
25752;SDS011;13600;50.816;4.416;2023-03-01T08:35:36;20.70;;;13.18;;
25752;SDS011;13600;50.816;4.416;2023-03-01T08:38:01;21.85;;;13.32;;
25752;SDS011;13600;50.816;4.416;2023-03-01T08:40:27;25.40;;;13.93;;
25752;SDS011;13600;50.816;4.416;2023-03-01T08:42:53;24.58;;;13.32;;
25752;SDS011;13600;50.816;4.416;2023-03-01T08:45:19;26.45;;;14.32;;
25752;SDS011;13600;50.816;4.416;2023-03-01T08:47:44;27.67;;;13.73;;
25752;SDS011;13600;50.816;4.416;2023-03-01T08:50:10;21.70;;;13.10;;
25752;SDS011;13600;50.816;4.416;2023-03-01T08:52:36;21.52;;;13.57;;
25752;SDS011;13600;50.816;4.416;2023-03-01T08:55:02;21.02;;;13.32;;
25752;SDS011;13600;50.816;4.416;2023-03-01T08:57:28;20.23;;;12.73;;
25752;SDS011;13600;50.816;4.416;2023-03-01T08:59:54;26.05;;;12.50;;
25752;SDS011;13600;50.816;4.416;2023-03-01T09:02:21;24.23;;;12.15;;
25752;SDS011;13600;50.816;4.416;2023-03-01T09:04:47;23.65;;;12.30;;
25752;SDS011;13600;50.816;4.416;2023-03-01T09:07:13;21.33;;;11.85;;
25752;SDS011;13600;50.816;4.416;2023-03-01T09:09:38;28.27;;;12.07;;
25752;SDS011;13600;50.816;4.416;2023-03-01T09:12:04;18.23;;;11.85;;
25752;SDS011;13600;50.816;4.416;2023-03-01T09:14:30;16.65;;;11.88;;
25752;SDS011;13600;50.816;4.416;2023-03-01T09:16:56;18.45;;;12.23;;
25752;SDS011;13600;50.816;4.416;2023-03-01T09:19:22;21.08;;;12.55;;
25752;SDS011;13600;50.816;4.416;2023-03-01T09:21:48;20.67;;;12.38;;
25752;SDS011;13600;50.816;4.416;2023-03-01T09:24:21;19.95;;;12.23;;
25752;SDS011;13600;50.816;4.416;2023-03-01T09:26:47;18.73;;;12.30;;
25752;SDS011;13600;50.816;4.416;2023-03-01T09:29:15;17.52;;;12.02;;
25752;SDS011;13600;50.816;4.416;2023-03-01T09:31:42;18.52;;;12.35;;
25752;SDS011;13600;50.816;4.416;2023-03-01T09:34:09;21.20;;;12.75;;
25752;SDS011;13600;50.816;4.416;2023-03-01T09:36:35;21.65;;;12.25;;
25752;SDS011;13600;50.816;4.416;2023-03-01T09:39:01;20.25;;;12.07;;
25752;SDS011;13600;50.816;4.416;2023-03-01T09:47:02;17.50;;;11.60;;
25752;SDS011;13600;50.816;4.416;2023-03-01T09:49:32;17.30;;;11.20;;
25752;SDS011;13600;50.816;4.416;2023-03-01T09:54:37;20.55;;;11.38;;
25752;SDS011;13600;50.816;4.416;2023-03-01T10:05:01;17.63;;;12.13;;
25752;SDS011;13600;50.816;4.416;2023-03-01T10:07:54;21.15;;;11.73;;
25752;SDS011;13600;50.816;4.416;2023-03-01T10:10:33;16.30;;;12.18;;
25752;SDS011;13600;50.816;4.416;2023-03-01T10:13:10;14.95;;;11.88;;
25752;SDS011;13600;50.816;4.416;2023-03-01T10:16:03;16.75;;;12.02;;
25752;SDS011;13600;50.816;4.416;2023-03-01T10:18:35;18.52;;;12.68;;
25752;SDS011;13600;50.816;4.416;2023-03-01T10:21:25;18.10;;;12.00;;
25752;SDS011;13600;50.816;4.416;2023-03-01T10:23:51;18.70;;;12.90;;
25752;SDS011;13600;50.816;4.416;2023-03-01T10:29:23;21.77;;;12.55;;
25752;SDS011;13600;50.816;4.416;2023-03-01T10:31:54;16.27;;;12.10;;
25752;SDS011;13600;50.816;4.416;2023-03-01T10:34:25;24.75;;;12.38;;
25752;SDS011;13600;50.816;4.416;2023-03-01T10:36:55;15.55;;;11.95;;
25752;SDS011;13600;50.816;4.416;2023-03-01T10:39:23;16.83;;;12.05;;
25752;SDS011;13600;50.816;4.416;2023-03-01T10:41:59;18.90;;;11.70;;
25752;SDS011;13600;50.816;4.416;2023-03-01T10:47:19;16.55;;;12.27;;
25752;SDS011;13600;50.816;4.416;2023-03-01T10:49:51;18.02;;;12.50;;
25752;SDS011;13600;50.816;4.416;2023-03-01T10:52:25;17.13;;;11.85;;
25752;SDS011;13600;50.816;4.416;2023-03-01T10:55:24;17.73;;;12.43;;
25752;SDS011;13600;50.816;4.416;2023-03-01T10:57:47;15.15;;;11.82;;
25752;SDS011;13600;50.816;4.416;2023-03-01T11:00:17;17.13;;;11.45;;
25752;SDS011;13600;50.816;4.416;2023-03-01T11:03:11;18.45;;;12.15;;
25752;SDS011;13600;50.816;4.416;2023-03-01T11:05:49;15.10;;;11.55;;
25752;SDS011;13600;50.816;4.416;2023-03-01T11:08:29;13.27;;;11.20;;
25752;SDS011;13600;50.816;4.416;2023-03-01T11:13:59;14.77;;;10.75;;
25752;SDS011;13600;50.816;4.416;2023-03-01T11:16:43;14.52;;;10.63;;
25752;SDS011;13600;50.816;4.416;2023-03-01T11:21:38;17.17;;;10.50;;
25752;SDS011;13600;50.816;4.416;2023-03-01T11:24:12;16.85;;;10.98;;
25752;SDS011;13600;50.816;4.416;2023-03-01T11:26:40;16.00;;;10.95;;
25752;SDS011;13600;50.816;4.416;2023-03-01T11:29:27;13.98;;;11.02;;
25752;SDS011;13600;50.816;4.416;2023-03-01T11:32:05;16.02;;;10.60;;
25752;SDS011;13600;50.816;4.416;2023-03-01T11:40:25;16.38;;;11.13;;
25752;SDS011;13600;50.816;4.416;2023-03-01T11:43:01;11.88;;;10.10;;
25752;SDS011;13600;50.816;4.416;2023-03-01T11:48:53;13.90;;;10.40;;
25752;SDS011;13600;50.816;4.416;2023-03-01T11:54:38;12.32;;;10.63;;
25752;SDS011;13600;50.816;4.416;2023-03-01T12:09:00;11.65;;;9.10;;
25752;SDS011;13600;50.816;4.416;2023-03-01T12:14:23;13.40;;;10.55;;
25752;SDS011;13600;50.816;4.416;2023-03-01T12:17:13;15.48;;;10.15;;
25752;SDS011;13600;50.816;4.416;2023-03-01T12:31:08;12.80;;;9.65;;
25752;SDS011;13600;50.816;4.416;2023-03-01T12:50:54;11.45;;;8.93;;
25752;SDS011;13600;50.816;4.416;2023-03-01T12:53:34;11.38;;;8.30;;
25752;SDS011;13600;50.816;4.416;2023-03-01T12:56:08;11.43;;;9.00;;
25752;SDS011;13600;50.816;4.416;2023-03-01T12:59:00;12.02;;;9.00;;
25752;SDS011;13600;50.816;4.416;2023-03-01T13:04:18;13.07;;;8.73;;
25752;SDS011;13600;50.816;4.416;2023-03-01T13:09:48;12.10;;;8.82;;
25752;SDS011;13600;50.816;4.416;2023-03-01T13:17:48;11.30;;;8.55;;
25752;SDS011;13600;50.816;4.416;2023-03-01T13:20:19;10.93;;;8.73;;
25752;SDS011;13600;50.816;4.416;2023-03-01T13:26:06;11.07;;;9.60;;
25752;SDS011;13600;50.816;4.416;2023-03-01T13:28:46;13.53;;;9.57;;
25752;SDS011;13600;50.816;4.416;2023-03-01T13:33:51;12.75;;;9.60;;
25752;SDS011;13600;50.816;4.416;2023-03-01T13:37:03;12.05;;;8.93;;
25752;SDS011;13600;50.816;4.416;2023-03-01T13:41:54;9.93;;;8.35;;
25752;SDS011;13600;50.816;4.416;2023-03-01T13:44:37;13.82;;;8.63;;
25752;SDS011;13600;50.816;4.416;2023-03-01T13:49:41;13.07;;;9.07;;
25752;SDS011;13600;50.816;4.416;2023-03-01T13:52:40;13.40;;;9.25;;
25752;SDS011;13600;50.816;4.416;2023-03-01T13:57:42;10.40;;;9.02;;
25752;SDS011;13600;50.816;4.416;2023-03-01T14:06:04;13.13;;;9.13;;
25752;SDS011;13600;50.816;4.416;2023-03-01T14:08:34;12.35;;;8.93;;
25752;SDS011;13600;50.816;4.416;2023-03-01T14:14:18;13.65;;;9.85;;
25752;SDS011;13600;50.816;4.416;2023-03-01T14:17:00;12.70;;;9.38;;
25752;SDS011;13600;50.816;4.416;2023-03-01T14:19:37;13.32;;;8.88;;
25752;SDS011;13600;50.816;4.416;2023-03-01T14:25:02;11.75;;;8.52;;
25752;SDS011;13600;50.816;4.416;2023-03-01T14:27:40;14.43;;;9.50;;
25752;SDS011;13600;50.816;4.416;2023-03-01T14:30:11;12.05;;;8.98;;
25752;SDS011;13600;50.816;4.416;2023-03-01T14:32:42;10.77;;;8.68;;
25752;SDS011;13600;50.816;4.416;2023-03-01T14:35:40;11.00;;;8.98;;
25752;SDS011;13600;50.816;4.416;2023-03-01T14:38:00;13.40;;;9.15;;
25752;SDS011;13600;50.816;4.416;2023-03-01T14:40:28;11.75;;;9.43;;
25752;SDS011;13600;50.816;4.416;2023-03-01T14:43:00;13.45;;;8.98;;
25752;SDS011;13600;50.816;4.416;2023-03-01T14:45:33;14.05;;;9.15;;
25752;SDS011;13600;50.816;4.416;2023-03-01T14:48:00;11.02;;;8.98;;
25752;SDS011;13600;50.816;4.416;2023-03-01T14:50:29;14.45;;;9.05;;
25752;SDS011;13600;50.816;4.416;2023-03-01T14:52:58;13.68;;;9.50;;
25752;SDS011;13600;50.816;4.416;2023-03-01T14:55:30;13.95;;;8.85;;
25752;SDS011;13600;50.816;4.416;2023-03-01T15:00:28;10.20;;;8.93;;
25752;SDS011;13600;50.816;4.416;2023-03-01T15:02:58;14.20;;;10.00;;
25752;SDS011;13600;50.816;4.416;2023-03-01T15:05:34;16.17;;;10.02;;
25752;SDS011;13600;50.816;4.416;2023-03-01T15:08:02;11.98;;;8.95;;
25752;SDS011;13600;50.816;4.416;2023-03-01T15:10:34;16.77;;;10.20;;
25752;SDS011;13600;50.816;4.416;2023-03-01T15:13:11;11.50;;;9.07;;
25752;SDS011;13600;50.816;4.416;2023-03-01T15:15:41;15.48;;;10.23;;
25752;SDS011;13600;50.816;4.416;2023-03-01T15:18:17;21.20;;;14.20;;
25752;SDS011;13600;50.816;4.416;2023-03-01T15:20:43;14.75;;;11.13;;
25752;SDS011;13600;50.816;4.416;2023-03-01T15:23:21;15.93;;;10.38;;
25752;SDS011;13600;50.816;4.416;2023-03-01T15:25:49;17.27;;;11.30;;
25752;SDS011;13600;50.816;4.416;2023-03-01T15:28:21;17.55;;;9.75;;
25752;SDS011;13600;50.816;4.416;2023-03-01T15:31:37;13.20;;;9.85;;
25752;SDS011;13600;50.816;4.416;2023-03-01T15:33:48;13.60;;;10.02;;
25752;SDS011;13600;50.816;4.416;2023-03-01T15:36:48;13.15;;;9.77;;
25752;SDS011;13600;50.816;4.416;2023-03-01T15:39:26;15.23;;;9.57;;
25752;SDS011;13600;50.816;4.416;2023-03-01T15:42:04;13.50;;;10.13;;
25752;SDS011;13600;50.816;4.416;2023-03-01T15:44:39;15.48;;;10.30;;
25752;SDS011;13600;50.816;4.416;2023-03-01T15:47:23;18.38;;;10.38;;
25752;SDS011;13600;50.816;4.416;2023-03-01T15:49:52;16.58;;;11.18;;
25752;SDS011;13600;50.816;4.416;2023-03-01T15:52:24;14.05;;;9.77;;
25752;SDS011;13600;50.816;4.416;2023-03-01T15:55:03;15.82;;;9.85;;
25752;SDS011;13600;50.816;4.416;2023-03-01T15:57:34;15.40;;;9.73;;
25752;SDS011;13600;50.816;4.416;2023-03-01T16:00:00;17.17;;;10.80;;
25752;SDS011;13600;50.816;4.416;2023-03-01T16:02:25;13.52;;;9.23;;
25752;SDS011;13600;50.816;4.416;2023-03-01T16:04:52;15.35;;;9.38;;
25752;SDS011;13600;50.816;4.416;2023-03-01T16:07:21;17.77;;;11.05;;
25752;SDS011;13600;50.816;4.416;2023-03-01T16:09:46;14.98;;;9.45;;
25752;SDS011;13600;50.816;4.416;2023-03-01T16:12:15;14.23;;;9.13;;
25752;SDS011;13600;50.816;4.416;2023-03-01T16:14:42;16.17;;;9.55;;
25752;SDS011;13600;50.816;4.416;2023-03-01T16:17:07;16.05;;;9.93;;
25752;SDS011;13600;50.816;4.416;2023-03-01T16:19:35;15.07;;;10.18;;
25752;SDS011;13600;50.816;4.416;2023-03-01T16:22:02;18.38;;;9.75;;
25752;SDS011;13600;50.816;4.416;2023-03-01T16:24:28;17.50;;;9.05;;
25752;SDS011;13600;50.816;4.416;2023-03-01T16:26:55;14.50;;;9.52;;
25752;SDS011;13600;50.816;4.416;2023-03-01T16:29:20;15.68;;;9.70;;
25752;SDS011;13600;50.816;4.416;2023-03-01T16:31:46;14.50;;;9.20;;
25752;SDS011;13600;50.816;4.416;2023-03-01T16:34:12;15.00;;;9.00;;
25752;SDS011;13600;50.816;4.416;2023-03-01T16:36:38;15.48;;;8.80;;
25752;SDS011;13600;50.816;4.416;2023-03-01T16:39:04;14.68;;;8.85;;
25752;SDS011;13600;50.816;4.416;2023-03-01T16:41:30;16.30;;;9.05;;
25752;SDS011;13600;50.816;4.416;2023-03-01T16:43:56;16.20;;;9.27;;
25752;SDS011;13600;50.816;4.416;2023-03-01T16:46:22;15.40;;;9.23;;
25752;SDS011;13600;50.816;4.416;2023-03-01T16:48:50;16.25;;;8.88;;
25752;SDS011;13600;50.816;4.416;2023-03-01T16:51:16;18.77;;;9.80;;
25752;SDS011;13600;50.816;4.416;2023-03-01T16:53:42;17.77;;;9.82;;
25752;SDS011;13600;50.816;4.416;2023-03-01T16:56:09;17.15;;;9.02;;
25752;SDS011;13600;50.816;4.416;2023-03-01T16:58:38;14.85;;;8.98;;